Windsor, New Hampshire
Current Conditions -  °F | °C
As of 4:51 AM on Sunday 25 Jan 2015 (Local Time) from KCON Reporting Station
Overcast Overcast  
Wind Chill: 24°   Ceiling: 7500
Heat Index: 31°   Visibility: 10mi
Dew Point: 23°   Wind: 7mph
Humidity: 72%   Direction: 210°SSW
Pressure: 29.38"   Gusts: NA
Location:  43.1281°N, 71.9266°W
Report Text: KCON 250951Z AUTO 21006KT 10SM OVC075 M01/M05 A2938 RMK AO2 SLP952 T10061050
Loading
Personal Weather Stations






























Interactive Weather Map New forecast layout! Learn more

10-Day Weather Forecast

Advertisements
Track Severe Weather on mobile